Time;durP1;ratioP1;P1;durP2;ratioP2;P2;SDS_P1;SDS_P2;PMS_P1;PMS_P2;Temp;Humidity;BMP_temperature;BMP_pressure;BME280_temperature;BME280_humidity;BME280_pressure;Samples;Min_cycle;Max_cycle;Signal;HPM_P1;HPM_P2
2021/10/18 00:02:09;;;;;;;8.53;7.73;;;12.50;1.00;;;;;;5083339;28;20167;-58
2021/10/18 00:04:34;;;;;;;7.83;6.77;;;12.40;1.00;;;;;;5102445;28;20548;-58
2021/10/18 00:07:00;;;;;;;9.73;7.20;;;12.50;1.00;;;;;;5103245;28;20198;-59
2021/10/18 00:09:25;;;;;;;8.33;6.73;;;12.40;1.00;;;;;;5110726;28;20186;-59
2021/10/18 00:11:51;;;;;;;11.37;7.70;;;12.30;1.00;;;;;;5102112;28;20226;-58
2021/10/18 00:14:16;;;;;;;8.60;6.97;;;12.40;1.00;;;;;;5102855;28;20307;-58
2021/10/18 00:16:42;;;;;;;8.27;6.83;;;12.30;1.00;;;;;;5109415;28;20194;-57
2021/10/18 00:19:08;;;;;;;9.90;7.23;;;12.30;1.00;;;;;;5091942;28;20179;-60
2021/10/18 00:21:34;;;;;;;7.73;7.00;;;12.30;1.00;;;;;;5105858;28;20881;-58
2021/10/18 00:24:00;;;;;;;10.40;8.10;;;12.30;1.00;;;;;;5106574;28;20553;-58
2021/10/18 00:26:25;;;;;;;10.43;7.13;;;12.30;1.00;;;;;;5104497;28;20186;-59
2021/10/18 00:28:51;;;;;;;9.97;7.40;;;12.30;1.00;;;;;;5110572;28;20194;-59
2021/10/18 00:31:16;;;;;;;7.70;6.90;;;12.20;1.00;;;;;;5102395;28;20202;-58
2021/10/18 00:33:42;;;;;;;7.23;6.53;;;12.20;1.00;;;;;;5100765;28;20192;-58
2021/10/18 00:36:08;;;;;;;7.60;6.87;;;12.20;1.00;;;;;;5098627;28;20179;-58
2021/10/18 00:38:33;;;;;;;7.73;7.03;;;12.20;1.00;;;;;;5110899;28;20262;-58
2021/10/18 00:40:59;;;;;;;7.83;7.03;;;12.20;1.00;;;;;;5104714;28;20191;-59
2021/10/18 00:43:24;;;;;;;9.63;6.63;;;12.20;1.00;;;;;;5106258;28;20190;-59
2021/10/18 00:45:50;;;;;;;7.27;6.57;;;12.20;1.00;;;;;;5105150;28;20233;-58
2021/10/18 00:48:18;;;;;;;7.83;5.77;;;12.10;1.00;;;;;;5097120;28;20574;-58
2021/10/18 00:50:44;;;;;;;7.97;7.17;;;12.10;1.00;;;;;;5099856;28;20242;-58
2021/10/18 00:53:10;;;;;;;7.40;6.70;;;12.00;1.00;;;;;;5090958;28;20467;-58
2021/10/18 00:55:36;;;;;;;8.97;7.20;;;12.10;1.00;;;;;;5107061;28;20256;-57
2021/10/18 00:58:02;;;;;;;8.70;6.30;;;12.00;1.00;;;;;;5109342;28;20476;-59
2021/10/18 01:00:28;;;;;;;7.13;6.50;;;12.00;1.00;;;;;;5107726;28;20296;-58
2021/10/18 01:02:54;;;;;;;7.33;6.50;;;12.00;1.00;;;;;;5098590;28;20186;-58
2021/10/18 01:05:20;;;;;;;9.23;6.37;;;12.00;1.00;;;;;;5099411;28;20448;-58
2021/10/18 01:07:46;;;;;;;7.40;6.70;;;12.00;1.00;;;;;;5110894;28;20457;-59
2021/10/18 01:10:12;;;;;;;8.17;6.70;;;12.00;1.00;;;;;;5089923;28;20295;-57
2021/10/18 01:12:38;;;;;;;8.27;7.00;;;12.10;1.00;;;;;;5101168;28;20527;-59
2021/10/18 01:15:04;;;;;;;6.63;6.03;;;12.00;1.00;;;;;;5106187;28;20262;-58
2021/10/18 01:17:30;;;;;;;6.53;5.80;;;12.00;1.00;;;;;;5104734;28;20231;-57
2021/10/18 01:19:55;;;;;;;7.07;5.97;;;11.90;1.00;;;;;;5106634;28;20928;-59
2021/10/18 01:22:21;;;;;;;8.53;7.37;;;11.80;1.00;;;;;;5096301;28;20216;-58
2021/10/18 01:24:46;;;;;;;7.03;6.13;;;11.80;1.00;;;;;;5102847;28;20518;-58
2021/10/18 01:27:13;;;;;;;6.73;6.00;;;11.70;1.00;;;;;;5102943;28;20190;-58
2021/10/18 01:29:39;;;;;;;7.47;6.77;;;11.70;1.00;;;;;;5106209;28;20535;-58
2021/10/18 01:32:06;;;;;;;7.53;6.13;;;11.80;1.00;;;;;;5098983;28;20465;-58
2021/10/18 01:34:32;;;;;;;7.40;6.33;;;11.80;1.00;;;;;;5098408;28;20608;-59
2021/10/18 01:37:00;;;;;;;6.90;5.60;;;12.60;1.00;;;;;;5106355;28;20438;-58
2021/10/18 01:39:26;;;;;;;8.10;6.37;;;11.80;1.00;;;;;;5108243;28;20956;-59
2021/10/18 01:41:52;;;;;;;11.00;6.33;;;11.80;1.00;;;;;;5100077;28;20448;-59
2021/10/18 01:44:18;;;;;;;7.70;6.07;;;11.80;1.00;;;;;;5103038;28;20478;-57
2021/10/18 01:46:44;;;;;;;6.70;5.83;;;11.70;1.00;;;;;;5101457;28;20651;-60
2021/10/18 01:49:10;;;;;;;7.43;6.60;;;11.70;1.00;;;;;;5085357;28;20570;-58
2021/10/18 01:51:35;;;;;;;7.60;5.30;;;11.70;1.00;;;;;;5080768;28;20218;-59
2021/10/18 01:54:01;;;;;;;7.13;6.43;;;11.60;1.00;;;;;;5108969;28;20189;-58
2021/10/18 01:56:27;;;;;;;6.67;6.03;;;11.70;1.00;;;;;;5107391;28;20183;-58
2021/10/18 01:58:52;;;;;;;7.10;5.67;;;11.70;1.00;;;;;;5095963;28;20207;-59
2021/10/18 02:01:18;;;;;;;6.37;5.87;;;11.70;1.00;;;;;;5082337;28;20195;-58
2021/10/18 02:03:44;;;;;;;6.90;5.83;;;11.60;1.00;;;;;;5109474;28;22055;-58
2021/10/18 02:06:10;;;;;;;7.27;6.47;;;11.60;1.00;;;;;;5108150;28;20186;-58
2021/10/18 02:08:36;;;;;;;7.20;6.00;;;11.50;1.00;;;;;;5099120;28;20180;-57
2021/10/18 02:11:03;;;;;;;7.83;5.90;;;11.50;1.00;;;;;;5100115;28;20475;-58
2021/10/18 02:13:28;;;;;;;8.40;6.90;;;11.50;1.00;;;;;;5094248;28;20536;-58
2021/10/18 02:15:54;;;;;;;7.93;6.50;;;11.60;1.00;;;;;;5096331;28;20448;-59
2021/10/18 02:18:20;;;;;;;8.00;5.97;;;11.70;1.00;;;;;;5079257;28;20662;-58
2021/10/18 02:20:46;;;;;;;8.73;6.67;;;11.70;1.00;;;;;;5099484;28;20429;-58
2021/10/18 02:23:11;;;;;;;6.80;6.10;;;11.80;1.00;;;;;;5111127;28;20184;-59
2021/10/18 02:25:37;;;;;;;7.20;5.90;;;11.80;1.00;;;;;;5099459;28;20240;-61
2021/10/18 02:28:03;;;;;;;10.43;6.40;;;11.80;1.00;;;;;;5077404;28;20532;-58
2021/10/18 02:30:28;;;;;;;7.33;6.53;;;11.80;1.00;;;;;;5099768;28;20216;-58
2021/10/18 02:32:54;;;;;;;6.57;5.97;;;11.90;1.00;;;;;;5099898;28;20186;-58
2021/10/18 02:35:19;;;;;;;7.43;6.33;;;11.80;1.00;;;;;;5109066;28;20172;-58
2021/10/18 02:37:45;;;;;;;9.20;6.33;;;11.80;1.00;;;;;;5097642;28;20187;-58
2021/10/18 02:40:11;;;;;;;9.93;6.00;;;11.80;1.00;;;;;;5102599;28;20253;-58
2021/10/18 02:42:36;;;;;;;8.60;6.70;;;11.90;1.00;;;;;;5099540;28;20175;-58
2021/10/18 02:45:02;;;;;;;7.80;6.30;;;11.90;1.00;;;;;;5109872;28;20524;-59
2021/10/18 02:47:28;;;;;;;10.50;6.93;;;11.90;1.00;;;;;;5098417;28;20280;-57
2021/10/18 02:49:54;;;;;;;8.27;6.90;;;11.70;1.00;;;;;;5097886;28;20427;-58
2021/10/18 02:52:19;;;;;;;7.47;6.47;;;11.70;1.00;;;;;;5096263;28;20525;-58
2021/10/18 02:54:44;;;;;;;8.60;6.80;;;11.80;1.00;;;;;;5096523;28;20196;-59
2021/10/18 02:57:10;;;;;;;10.10;6.63;;;11.70;1.00;;;;;;5096244;28;20225;-59
2021/10/18 02:59:36;;;;;;;8.00;7.20;;;11.70;1.00;;;;;;5101065;28;20189;-58
2021/10/18 03:02:01;;;;;;;8.10;6.67;;;11.60;1.00;;;;;;5113059;28;20202;-59
2021/10/18 03:04:27;;;;;;;7.70;6.30;;;11.70;1.00;;;;;;5107097;28;20225;-60
2021/10/18 03:06:52;;;;;;;7.07;6.37;;;11.70;1.00;;;;;;5097560;28;20917;-59
2021/10/18 03:09:18;;;;;;;8.47;7.67;;;11.60;1.00;;;;;;5095744;28;20196;-58
2021/10/18 03:11:43;;;;;;;8.30;6.57;;;11.60;1.00;;;;;;5103937;28;20215;-58
2021/10/18 03:14:08;;;;;;;8.83;6.50;;;11.60;1.00;;;;;;5109909;28;20247;-58
2021/10/18 03:16:34;;;;;;;9.27;6.43;;;11.70;1.00;;;;;;5085888;28;20261;-58
2021/10/18 03:19:00;;;;;;;9.37;7.50;;;11.70;1.00;;;;;;5096730;28;20345;-58
2021/10/18 03:21:25;;;;;;;9.20;6.73;;;11.70;1.00;;;;;;5097780;28;20206;-58
2021/10/18 03:23:51;;;;;;;9.50;6.70;;;11.60;1.00;;;;;;5109855;28;20647;-60
2021/10/18 03:26:16;;;;;;;7.67;6.60;;;11.60;1.00;;;;;;5100602;28;20183;-57
2021/10/18 03:28:43;;;;;;;7.50;6.43;;;11.70;1.00;;;;;;5095935;28;20186;-58
2021/10/18 03:31:09;;;;;;;6.80;5.90;;;11.70;1.00;;;;;;5098930;28;20207;-59
2021/10/18 03:33:39;;;;;;;7.30;6.53;;;11.60;1.00;;;;;;5099463;28;20411;-59
2021/10/18 03:36:05;;;;;;;7.27;6.37;;;11.60;1.00;;;;;;5081029;28;20487;-58
2021/10/18 03:38:31;;;;;;;9.07;7.10;;;11.60;1.00;;;;;;5102012;28;20410;-58
2021/10/18 03:40:58;;;;;;;11.00;6.40;;;11.50;1.00;;;;;;5087837;28;20453;-58
2021/10/18 03:43:23;;;;;;;9.43;6.73;;;11.60;1.00;;;;;;5091058;28;20458;-58
2021/10/18 03:45:49;;;;;;;8.80;6.60;;;11.50;1.00;;;;;;5111842;28;20469;-59
2021/10/18 03:48:14;;;;;;;6.43;5.67;;;11.60;1.00;;;;;;5085487;28;20203;-58
2021/10/18 03:50:40;;;;;;;7.00;6.33;;;11.60;1.00;;;;;;5104042;28;20225;-58
2021/10/18 03:53:06;;;;;;;10.83;6.03;;;11.50;1.00;;;;;;5101231;28;20179;-58
2021/10/18 03:55:31;;;;;;;9.20;6.50;;;11.60;1.00;;;;;;5096631;28;20175;-58
2021/10/18 03:57:57;;;;;;;7.90;6.83;;;11.60;1.00;;;;;;5093608;28;20171;-58
2021/10/18 04:00:23;;;;;;;7.43;6.73;;;11.60;1.00;;;;;;5101319;28;20191;-58
2021/10/18 04:02:48;;;;;;;7.97;7.10;;;11.50;1.00;;;;;;5105760;28;20190;-58
2021/10/18 04:05:14;;;;;;;8.47;6.30;;;11.50;1.00;;;;;;5104521;28;20301;-57
2021/10/18 04:07:46;;;;;;;6.93;6.27;;;11.50;1.00;;;;;;5097062;28;20187;-58
2021/10/18 04:10:12;;;;;;;7.83;6.67;;;11.50;1.00;;;;;;5099217;28;20206;-58
2021/10/18 04:12:37;;;;;;;7.60;6.83;;;11.50;1.00;;;;;;5097842;28;20429;-58
2021/10/18 04:15:04;;;;;;;6.87;6.23;;;11.50;1.00;;;;;;5078496;28;21869;-58
2021/10/18 04:17:29;;;;;;;8.20;6.50;;;11.60;1.00;;;;;;5095801;28;20175;-58
2021/10/18 04:19:56;;;;;;;6.80;6.13;;;11.60;1.00;;;;;;5093531;28;20441;-57
2021/10/18 04:22:21;;;;;;;9.07;6.03;;;11.50;1.00;;;;;;5093673;28;20304;-58
2021/10/18 04:24:47;;;;;;;13.30;6.17;;;11.50;1.00;;;;;;5092037;28;20525;-58
2021/10/18 04:27:13;;;;;;;6.57;5.87;;;11.60;1.00;;;;;;5096618;28;20179;-58
2021/10/18 04:29:38;;;;;;;9.93;5.67;;;11.50;1.00;;;;;;5101875;28;20442;-58
2021/10/18 04:32:04;;;;;;;6.93;5.90;;;11.50;1.00;;;;;;5098415;28;20291;-58
2021/10/18 04:34:30;;;;;;;7.40;6.33;;;11.50;1.00;;;;;;5096709;28;20536;-59
2021/10/18 04:36:56;;;;;;;9.30;5.70;;;11.50;1.00;;;;;;5092258;28;20914;-57
2021/10/18 04:39:22;;;;;;;12.00;6.40;;;11.50;1.00;;;;;;5097260;28;20282;-60
2021/10/18 04:41:48;;;;;;;8.17;6.30;;;11.40;1.00;;;;;;5092860;28;20445;-58
2021/10/18 04:44:14;;;;;;;8.10;6.00;;;11.40;1.00;;;;;;5107506;28;20449;-60
2021/10/18 04:46:40;;;;;;;6.23;5.47;;;11.40;1.00;;;;;;5100851;28;20472;-58
2021/10/18 04:49:05;;;;;;;7.30;6.60;;;11.40;1.00;;;;;;5104210;28;20191;-57
2021/10/18 04:51:31;;;;;;;7.07;5.57;;;11.50;1.00;;;;;;5104520;28;20202;-58
2021/10/18 04:53:56;;;;;;;8.90;6.40;;;11.40;1.00;;;;;;5102852;28;20188;-58
2021/10/18 04:56:22;;;;;;;10.47;6.30;;;11.50;1.00;;;;;;5095008;28;20683;-58
2021/10/18 04:58:47;;;;;;;7.90;5.27;;;11.50;1.00;;;;;;5079103;28;20183;-58
2021/10/18 05:01:13;;;;;;;7.93;6.30;;;11.40;1.00;;;;;;5109407;28;20588;-57
2021/10/18 05:03:39;;;;;;;6.90;5.73;;;11.40;1.00;;;;;;5103409;28;20204;-59
2021/10/18 05:06:04;;;;;;;7.90;5.87;;;11.40;1.00;;;;;;5101951;28;20971;-59
2021/10/18 05:08:30;;;;;;;6.23;5.60;;;11.40;1.00;;;;;;5109154;28;20227;-59
2021/10/18 05:10:56;;;;;;;6.43;5.50;;;11.50;1.00;;;;;;5102544;28;20222;-60
2021/10/18 05:13:22;;;;;;;6.93;5.37;;;11.30;1.00;;;;;;5096267;28;20181;-60
2021/10/18 05:15:52;;;;;;;6.50;5.43;;;11.30;1.00;;;;;;5103878;28;20496;-60
2021/10/18 05:18:18;;;;;;;7.00;5.67;;;11.40;1.00;;;;;;5105562;28;20179;-60
2021/10/18 05:20:43;;;;;;;7.67;5.90;;;11.50;1.00;;;;;;5100539;28;20440;-60
2021/10/18 05:23:09;;;;;;;7.27;5.53;;;11.30;1.00;;;;;;5092873;28;20456;-61
2021/10/18 05:25:34;;;;;;;9.23;6.03;;;11.30;1.00;;;;;;5080167;28;20193;-60
2021/10/18 05:28:01;;;;;;;13.13;5.47;;;11.40;1.00;;;;;;5092248;28;20536;-60
2021/10/18 05:30:27;;;;;;;7.13;5.77;;;11.40;1.00;;;;;;5097927;28;20289;-61
2021/10/18 05:32:54;;;;;;;8.07;6.23;;;15.10;1.00;;;;;;5093326;28;20823;-59
2021/10/18 05:35:21;;;;;;;6.23;5.60;;;11.50;1.00;;;;;;5099621;28;20666;-59
2021/10/18 05:37:48;;;;;;;6.80;6.10;;;11.50;1.00;;;;;;5096306;28;20513;-59
2021/10/18 05:40:15;;;;;;;6.10;5.27;;;11.50;1.00;;;;;;5107311;28;20960;-59
2021/10/18 05:42:42;;;;;;;8.37;5.27;;;11.60;1.00;;;;;;5091673;28;20851;-59
2021/10/18 05:45:08;;;;;;;9.17;5.77;;;11.50;1.00;;;;;;5098480;28;20462;-58
2021/10/18 05:47:33;;;;;;;10.47;5.67;;;11.50;1.00;;;;;;5105744;28;20563;-58
2021/10/18 05:50:00;;;;;;;6.70;5.57;;;11.60;1.00;;;;;;5097759;28;20531;-59
2021/10/18 05:52:28;;;;;;;10.80;5.70;;;11.60;1.00;;;;;;5104730;28;20265;-59
2021/10/18 05:54:54;;;;;;;7.70;5.67;;;11.60;1.00;;;;;;5098167;28;20517;-59
2021/10/18 05:57:19;;;;;;;8.73;5.77;;;11.60;1.00;;;;;;5103706;28;20445;-59
2021/10/18 05:59:45;;;;;;;9.97;6.90;;;11.70;1.00;;;;;;5096481;28;20933;-58
2021/10/18 06:02:10;;;;;;;8.87;5.90;;;11.70;1.00;;;;;;5099616;28;20175;-58
2021/10/18 06:04:41;;;;;;;8.07;6.20;;;11.70;1.00;;;;;;5103433;28;20230;-58
2021/10/18 06:07:07;;;;;;;9.40;5.60;;;11.70;1.00;;;;;;5100651;28;20533;-58
2021/10/18 06:09:33;;;;;;;6.30;4.90;;;11.70;1.00;;;;;;5095987;28;20461;-57
2021/10/18 06:11:58;;;;;;;6.67;5.57;;;11.70;1.00;;;;;;5102651;28;20210;-58
2021/10/18 06:14:24;;;;;;;6.80;5.00;;;11.70;1.00;;;;;;5098036;28;20489;-58
2021/10/18 06:16:49;;;;;;;8.80;5.57;;;11.80;1.00;;;;;;5107014;28;20182;-59
2021/10/18 06:19:15;;;;;;;7.90;5.40;;;11.80;1.00;;;;;;5096936;28;20182;-58
2021/10/18 06:21:40;;;;;;;8.90;6.10;;;11.80;1.00;;;;;;5096966;28;20189;-58
2021/10/18 06:24:06;;;;;;;6.90;5.20;;;11.80;1.00;;;;;;5109768;28;20187;-59
2021/10/18 06:26:31;;;;;;;6.20;5.43;;;11.80;1.00;;;;;;5106440;28;20223;-57
2021/10/18 06:28:57;;;;;;;10.17;6.50;;;11.80;1.00;;;;;;5103977;28;20190;-58
2021/10/18 06:31:22;;;;;;;5.73;5.23;;;11.90;1.00;;;;;;5101448;28;20213;-60
2021/10/18 06:33:48;;;;;;;8.27;6.70;;;11.90;1.00;;;;;;5103673;28;20442;-60
2021/10/18 06:36:14;;;;;;;6.40;5.37;;;11.90;1.00;;;;;;5095417;28;20194;-58
2021/10/18 06:38:39;;;;;;;8.33;6.43;;;11.90;1.00;;;;;;5097299;28;20275;-58
2021/10/18 06:41:05;;;;;;;6.07;5.03;;;12.00;1.00;;;;;;5087010;28;20187;-57
2021/10/18 06:43:30;;;;;;;11.30;5.70;;;12.10;1.00;;;;;;5097227;28;20194;-59
2021/10/18 06:45:56;;;;;;;7.10;5.90;;;12.00;1.00;;;;;;5098722;28;20280;-59
2021/10/18 06:48:21;;;;;;;7.93;5.47;;;12.00;1.00;;;;;;5101539;28;20586;-58
2021/10/18 06:50:48;;;;;;;7.37;5.40;;;12.00;1.00;;;;;;5101498;28;20211;-57
2021/10/18 06:53:31;;;;;;;7.20;6.50;;;12.10;1.00;;;;;;5094477;28;20246;-59
2021/10/18 06:55:58;;;;;;;9.17;6.27;;;12.10;1.00;;;;;;5103277;28;20952;-58
2021/10/18 06:58:24;;;;;;;6.27;5.43;;;12.20;1.00;;;;;;5105949;28;20439;-59
2021/10/18 07:00:51;;;;;;;10.73;6.03;;;12.20;1.00;;;;;;5106499;28;20448;-57
2021/10/18 07:03:17;;;;;;;7.00;6.23;;;12.20;1.00;;;;;;5109465;28;20274;-59
2021/10/18 07:05:42;;;;;;;10.27;6.67;;;12.30;1.00;;;;;;5097696;28;20524;-59
2021/10/18 07:08:08;;;;;;;14.20;6.90;;;12.20;1.00;;;;;;5101185;28;20198;-58
2021/10/18 07:10:33;;;;;;;10.00;6.53;;;12.30;1.00;;;;;;5104051;28;20205;-59
2021/10/18 07:12:59;;;;;;;6.63;5.50;;;12.20;1.00;;;;;;5102324;28;20188;-58
2021/10/18 07:15:25;;;;;;;10.40;6.67;;;12.30;1.00;;;;;;5098021;28;20182;-57
2021/10/18 07:17:51;;;;;;;8.53;6.40;;;12.30;1.00;;;;;;5101782;28;20280;-57
2021/10/18 07:20:17;;;;;;;8.10;6.47;;;12.20;1.00;;;;;;5107397;28;20184;-57
2021/10/18 07:22:48;;;;;;;9.47;6.57;;;12.20;1.00;;;;;;5111765;28;20430;-58
2021/10/18 07:25:14;;;;;;;8.07;6.00;;;12.30;1.00;;;;;;5109377;28;20178;-57
2021/10/18 07:27:43;;;;;;;8.30;6.47;;;12.40;1.00;;;;;;5108423;28;20441;-58
2021/10/18 07:30:09;;;;;;;11.13;7.20;;;12.40;1.00;;;;;;5105645;28;20450;-58
2021/10/18 07:32:36;;;;;;;8.47;6.77;;;12.40;1.00;;;;;;5109310;28;20463;-58
2021/10/18 07:35:02;;;;;;;7.10;6.13;;;12.40;1.00;;;;;;5100534;28;20917;-60
2021/10/18 07:37:29;;;;;;;8.90;7.03;;;12.50;1.00;;;;;;5092818;28;20480;-57
2021/10/18 07:39:55;;;;;;;8.97;6.67;;;12.50;1.00;;;;;;5106212;28;20780;-58
2021/10/18 07:42:20;;;;;;;7.83;6.47;;;12.60;1.00;;;;;;5101488;28;20597;-59
2021/10/18 07:44:46;;;;;;;8.53;6.43;;;12.50;1.00;;;;;;5094239;28;20192;-57
2021/10/18 07:47:12;;;;;;;8.70;7.00;;;12.50;1.00;;;;;;5111334;28;20221;-57
2021/10/18 07:49:40;;;;;;;10.57;7.00;;;12.50;1.00;;;;;;5103609;28;20182;-58
2021/10/18 07:52:11;;;;;;;7.73;6.73;;;12.60;1.00;;;;;;5083616;28;20462;-58
2021/10/18 07:54:41;;;;;;;7.83;6.90;;;12.50;1.00;;;;;;5102599;28;20437;-59
2021/10/18 07:57:06;;;;;;;10.87;8.10;;;12.40;1.00;;;;;;5103604;28;20838;-58
2021/10/18 07:59:32;;;;;;;9.47;7.47;;;12.50;1.00;;;;;;5093681;28;20466;-57
2021/10/18 08:01:59;;;;;;;10.80;7.30;;;12.60;1.00;;;;;;5105799;28;20267;-58
2021/10/18 08:04:25;;;;;;;10.20;6.90;;;12.60;1.00;;;;;;5084048;28;20241;-57
2021/10/18 08:06:50;;;;;;;11.20;7.13;;;12.60;1.00;;;;;;5095829;28;20540;-58
2021/10/18 08:09:16;;;;;;;8.93;6.40;;;12.70;1.00;;;;;;5111621;28;20199;-57
2021/10/18 08:11:41;;;;;;;7.73;6.93;;;12.60;1.00;;;;;;5103225;28;20310;-58
2021/10/18 08:14:07;;;;;;;9.37;6.90;;;12.70;1.00;;;;;;5093689;28;20187;-58
2021/10/18 08:16:32;;;;;;;12.37;7.67;;;12.70;1.00;;;;;;5098280;28;20184;-58
2021/10/18 08:18:58;;;;;;;11.20;7.47;;;12.70;1.00;;;;;;5110758;28;20192;-58
2021/10/18 08:21:24;;;;;;;8.40;6.70;;;12.70;1.00;;;;;;5097582;28;20199;-57
2021/10/18 08:23:50;;;;;;;9.53;7.77;;;12.70;1.00;;;;;;5095992;28;20187;-58
2021/10/18 08:26:16;;;;;;;9.80;7.33;;;12.70;1.00;;;;;;5094153;28;20185;-57
2021/10/18 08:28:41;;;;;;;10.00;7.43;;;12.80;1.00;;;;;;5096971;28;20496;-58
2021/10/18 08:31:09;;;;;;;8.93;7.20;;;12.90;1.00;;;;;;5086929;28;20456;-57
2021/10/18 08:33:34;;;;;;;11.30;8.03;;;12.90;1.00;;;;;;5097452;28;20184;-57
2021/10/18 08:36:04;;;;;;;8.67;7.20;;;13.00;1.00;;;;;;5098807;28;20446;-57
2021/10/18 08:44:24;;;;;;;9.07;7.47;;;13.40;1.00;;;;;;5109819;28;20454;-58
2021/10/18 08:46:31;;;;;;;11.13;7.47;;;13.30;1.00;;;;;;5088727;28;20464;-58
2021/10/18 08:48:57;;;;;;;11.93;7.40;;;13.30;1.00;;;;;;5103389;28;20438;-57
2021/10/18 08:51:24;;;;;;;9.90;7.43;;;13.40;1.00;;;;;;5096630;28;20192;-57
2021/10/18 08:53:50;;;;;;;8.97;7.00;;;13.50;1.00;;;;;;5098575;28;20489;-58
2021/10/18 08:56:15;;;;;;;7.90;6.03;;;13.60;1.00;;;;;;5111263;28;20437;-58
2021/10/18 08:58:41;;;;;;;9.80;6.23;;;13.60;1.00;;;;;;5099590;28;20202;-57
2021/10/18 09:01:07;;;;;;;12.77;7.50;;;13.60;1.00;;;;;;5099935;28;20547;-59
2021/10/18 09:03:33;;;;;;;13.97;6.23;;;13.70;1.00;;;;;;5086935;28;20282;-58
2021/10/18 09:06:23;;;;;;;9.27;7.13;;;13.70;1.00;;;;;;5108810;28;20506;-57
2021/10/18 09:08:51;;;;;;;6.87;6.20;;;13.90;1.00;;;;;;5096536;28;20487;-58
2021/10/18 09:11:18;;;;;;;12.40;6.90;;;14.00;1.00;;;;;;5091944;28;20985;-57
2021/10/18 09:14:03;;;;;;;9.93;6.83;;;14.10;1.00;;;;;;5109227;28;20547;-54
2021/10/18 09:16:35;;;;;;;9.33;5.80;;;14.30;1.00;;;;;;5094650;28;20459;-57
2021/10/18 09:19:11;;;;;;;12.37;7.27;;;14.30;1.00;;;;;;5109712;28;20438;-58
2021/10/18 09:21:39;;;;;;;8.27;6.57;;;14.30;1.00;;;;;;5110556;28;20440;-59
2021/10/18 09:24:07;;;;;;;9.63;5.40;;;14.30;1.00;;;;;;5099027;28;20435;-58
2021/10/18 09:26:34;;;;;;;7.90;6.37;;;14.40;1.00;;;;;;5095599;28;20458;-60
2021/10/18 09:29:11;;;;;;;7.87;6.00;;;14.30;1.00;;;;;;5096231;28;20610;-58
2021/10/18 09:31:38;;;;;;;11.93;6.27;;;14.30;1.00;;;;;;5097777;28;20444;-57
2021/10/18 09:34:15;;;;;;;9.03;6.30;;;14.40;1.00;;;;;;5099861;28;20791;-59
2021/10/18 09:36:43;;;;;;;7.67;6.23;;;14.70;1.00;;;;;;5100888;28;20432;-57
2021/10/18 09:39:16;;;;;;;9.80;7.43;;;14.80;1.00;;;;;;5093891;28;20448;-58
2021/10/18 09:41:57;;;;;;;9.97;6.83;;;14.90;1.00;;;;;;5096169;28;20476;-57
2021/10/18 09:44:37;;;;;;;6.50;5.70;;;15.00;1.00;;;;;;5092242;28;20420;-57
2021/10/18 09:48:01;;;;;;;9.10;6.40;;;15.00;1.00;;;;;;5095333;28;20480;-57
2021/10/18 10:51:55;;;;;;;6.97;5.57;;;16.30;1.00;;;;;;5093139;28;20442;-58
2021/10/18 10:54:41;;;;;;;9.03;6.13;;;16.50;1.00;;;;;;5107652;28;20461;-59
2021/10/18 10:57:12;;;;;;;9.73;5.97;;;16.50;1.00;;;;;;5113625;28;20440;-58
2021/10/18 10:59:50;;;;;;;8.37;6.30;;;16.70;1.00;;;;;;5113744;28;20421;-58
2021/10/18 11:02:30;;;;;;;7.77;5.73;;;16.60;1.00;;;;;;5113885;28;20504;-58
2021/10/18 11:04:56;;;;;;;6.83;5.10;;;16.70;1.00;;;;;;5103484;28;20447;-58
2021/10/18 11:07:42;;;;;;;8.17;5.33;;;16.70;1.00;;;;;;5093540;28;20948;-58
2021/10/18 11:10:08;;;;;;;7.23;5.33;;;16.90;1.00;;;;;;5093086;28;20186;-58
2021/10/18 11:12:37;;;;;;;7.47;5.97;;;17.00;1.00;;;;;;5093347;28;20428;-58
2021/10/18 11:15:13;;;;;;;6.90;5.57;;;17.30;1.00;;;;;;5074933;28;20436;-58
2021/10/18 11:17:44;;;;;;;5.50;4.80;;;17.50;1.00;;;;;;5107899;28;20470;-59
2021/10/18 11:20:12;;;;;;;5.90;4.43;;;17.60;1.00;;;;;;5113378;28;20412;-57
2021/10/18 11:22:46;;;;;;;6.13;4.43;;;17.50;1.00;;;;;;5113582;28;20438;-58
2021/10/18 11:25:19;;;;;;;7.57;4.60;;;17.70;1.00;;;;;;5113224;28;20932;-59
2021/10/18 11:27:51;;;;;;;7.83;5.23;;;17.80;1.00;;;;;;5113562;28;20964;-58
2021/10/18 11:30:19;;;;;;;11.40;5.70;;;17.80;1.00;;;;;;5101791;28;20433;-57
2021/10/18 11:32:56;;;;;;;6.63;3.77;;;17.70;1.00;;;;;;5093018;28;20415;-58
2021/10/18 11:35:22;;;;;;;8.83;3.77;;;17.70;1.00;;;;;;5092691;28;20407;-60
2021/10/18 11:38:00;;;;;;;6.67;4.00;;;17.70;1.00;;;;;;5096224;28;20448;-58
2021/10/18 11:40:38;;;;;;;4.57;3.37;;;17.80;1.00;;;;;;5094026;28;20175;-59
2021/10/18 11:43:09;;;;;;;3.73;3.00;;;17.70;1.00;;;;;;5102974;28;20915;-60
2021/10/18 11:45:38;;;;;;;6.03;3.70;;;17.60;1.00;;;;;;5093789;28;20562;-58
2021/10/18 11:48:06;;;;;;;5.57;3.00;;;17.70;1.00;;;;;;5111912;28;21025;-58
2021/10/18 11:50:36;;;;;;;6.37;3.07;;;17.80;1.00;;;;;;5096458;28;20464;-59
2021/10/18 11:53:08;;;;;;;4.13;2.90;;;18.00;1.00;;;;;;5079638;28;20509;-59
2021/10/18 11:55:38;;;;;;;5.70;3.30;;;18.30;1.00;;;;;;5112903;28;20454;-58
2021/10/18 11:58:05;;;;;;;4.70;2.87;;;19.70;1.00;;;;;;5094715;28;20414;-59
2021/10/18 12:00:40;;;;;;;2.97;2.43;;;18.70;1.00;;;;;;5112447;28;20447;-58
2021/10/18 12:03:07;;;;;;;2.83;2.30;;;18.60;1.00;;;;;;5111182;28;20434;-58
2021/10/18 12:05:42;;;;;;;6.73;3.57;;;18.50;1.00;;;;;;5074288;28;20437;-59
2021/10/18 12:08:08;;;;;;;2.53;1.83;;;18.40;1.00;;;;;;5109103;28;20762;-59
2021/10/18 12:10:35;;;;;;;2.30;1.90;;;18.50;1.00;;;;;;5101118;28;20548;-58
2021/10/18 12:13:21;;;;;;;2.60;2.20;;;18.50;1.00;;;;;;5092457;28;20439;-58
2021/10/18 12:15:48;;;;;;;2.87;2.20;;;18.70;1.00;;;;;;5092278;28;20444;-57
2021/10/18 12:18:17;;;;;;;2.93;1.90;;;18.60;1.00;;;;;;5091955;28;20475;-59
2021/10/18 12:20:45;;;;;;;4.23;2.13;;;18.60;1.00;;;;;;5091867;28;20960;-59
2021/10/18 12:23:29;;;;;;;4.53;2.17;;;18.50;1.00;;;;;;5095507;28;20538;-59
2021/10/18 12:26:16;;;;;;;2.70;2.20;;;18.70;1.00;;;;;;5112399;28;20442;-59
2021/10/18 12:28:50;;;;;;;3.10;1.77;;;18.90;1.00;;;;;;5112399;28;20586;-60
2021/10/18 12:31:43;;;;;;;4.37;2.10;;;18.90;1.00;;;;;;5112028;28;20459;-58
2021/10/18 12:34:14;;;;;;;3.80;2.10;;;18.80;1.00;;;;;;5112184;28;20589;-59
2021/10/18 12:37:06;;;;;;;2.90;2.30;;;18.80;1.00;;;;;;5103448;28;20437;-59
2021/10/18 12:39:39;;;;;;;3.10;2.13;;;18.80;1.00;;;;;;5091352;28;20469;-59
2021/10/18 12:42:10;;;;;;;3.80;2.37;;;18.80;1.00;;;;;;5091593;28;20447;-59
2021/10/18 12:44:39;;;;;;;3.07;2.10;;;18.80;1.00;;;;;;5091751;28;20403;-60
2021/10/18 12:47:27;;;;;;;2.43;1.90;;;18.80;1.00;;;;;;5091509;28;20941;-58
2021/10/18 12:50:11;;;;;;;4.23;2.03;;;18.90;1.00;;;;;;5095596;28;20446;-59
2021/10/18 12:52:38;;;;;;;4.70;1.90;;;18.80;1.00;;;;;;5111683;28;20905;-59
2021/10/18 12:55:11;;;;;;;4.67;2.57;;;18.80;1.00;;;;;;5111792;28;20450;-59
2021/10/18 12:57:48;;;;;;;4.03;3.23;;;18.80;1.00;;;;;;5110688;28;20407;-58
2021/10/18 13:00:18;;;;;;;2.63;2.00;;;18.80;1.00;;;;;;5111582;28;20429;-59
2021/10/18 13:02:46;;;;;;;3.50;2.00;;;18.70;1.00;;;;;;5111394;28;20410;-58
2021/10/18 13:05:16;;;;;;;2.87;1.90;;;18.60;1.00;;;;;;5099640;28;20467;-58
2021/10/18 13:07:51;;;;;;;3.63;1.37;;;18.70;1.00;;;;;;5091008;28;20977;-57
2021/10/18 13:10:18;;;;;;;3.30;1.93;;;18.60;1.00;;;;;;5094035;28;20435;-60
2021/10/18 13:12:45;;;;;;;1.87;1.30;;;18.60;1.00;;;;;;5106666;28;20509;-58
2021/10/18 13:15:12;;;;;;;2.43;1.83;;;18.40;1.00;;;;;;5090841;28;20419;-60
2021/10/18 13:17:38;;;;;;;4.27;2.40;;;18.40;1.00;;;;;;5072264;28;20441;-61
2021/10/18 13:20:05;;;;;;;3.33;1.87;;;18.50;1.00;;;;;;5072680;28;20793;-60
2021/10/18 13:22:31;;;;;;;2.50;1.67;;;18.60;1.00;;;;;;5090732;28;20445;-58
2021/10/18 13:24:56;;;;;;;2.50;1.83;;;18.70;1.00;;;;;;5090566;28;20422;-57
2021/10/18 13:27:22;;;;;;;3.27;1.90;;;18.60;1.00;;;;;;5090710;28;20191;-59
2021/10/18 13:29:48;;;;;;;2.60;1.77;;;18.70;1.00;;;;;;5106154;28;20187;-60
2021/10/18 13:32:14;;;;;;;2.10;1.50;;;18.60;1.00;;;;;;5111255;28;20206;-59
2021/10/18 13:34:43;;;;;;;3.23;1.80;;;18.50;1.00;;;;;;5096424;28;20517;-58
2021/10/18 13:37:11;;;;;;;2.77;1.87;;;18.50;1.00;;;;;;5111058;28;20444;-59
2021/10/18 13:39:38;;;;;;;1.83;1.70;;;18.50;1.00;;;;;;5092884;28;20436;-60
2021/10/18 13:42:04;;;;;;;4.40;1.67;;;18.50;1.00;;;;;;5090738;28;20445;-58
2021/10/18 13:44:30;;;;;;;1.90;1.70;;;18.50;1.00;;;;;;5090710;28;20430;-59
2021/10/18 13:46:56;;;;;;;1.47;1.37;;;18.50;1.00;;;;;;5098405;28;20977;-58
2021/10/18 13:49:21;;;;;;;3.23;1.90;;;18.40;1.00;;;;;;5109905;28;20573;-58
2021/10/18 13:51:47;;;;;;;3.97;1.57;;;18.40;1.00;;;;;;5101907;28;20340;-57
2021/10/18 13:54:12;;;;;;;2.40;1.50;;;18.30;1.00;;;;;;5095752;28;20174;-57
2021/10/18 13:56:38;;;;;;;3.23;1.93;;;18.30;1.00;;;;;;5102106;28;20186;-57
2021/10/18 13:59:04;;;;;;;3.90;1.70;;;18.30;1.00;;;;;;5090153;28;20187;-58
2021/10/18 14:01:30;;;;;;;1.97;1.67;;;18.20;1.00;;;;;;5092628;28;20186;-59
2021/10/18 14:03:56;;;;;;;3.03;1.77;;;18.30;1.00;;;;;;5082959;28;20190;-58
2021/10/18 14:06:21;;;;;;;2.27;1.70;;;18.30;1.00;;;;;;5092739;28;20424;-59